Barney, ND (58008)

9:51 AM CST on February 10, 2016 (GMT -0600)
Hall Township | | Change Station
CLOSE
Current Station
Personal Weather Station
Location: Milnor, ND
Elevation: 1079 ft
Nearby Weather Stations

Elev 1079 ft 46.22 °N, 97.36 °W | Updated 13 minutes ago

Overcast
Overcast
8.4 °F
Feels Like -8 °F
N
13.5
Wind Variable Wind from ESE

Today
High -- | Low -- °F
--% Chance of Precip.
Yesterday
High -- | Low -- °F
Precip. -- in
Pressure 30.08 in
Visibility 2.0 miles
Clouds Mostly Cloudy 800 ft
Overcast 1400 ft
Windchill -8 °F
Dew Point 5 °F
Humidity 84%
Rainfall 0.00 in
Snow Depth Not available.
7:39 AM 5:45 PM
Waxing Crescent, 6% visible
METAR KBWP 101535Z AUTO 11008KT 2SM BKN008 OVC014 M13/M16 A3008 RMK AO1
Pressure 30.08 in
Visibility 2.0 miles
Clouds Mostly Cloudy 800 ft
Overcast 1400 ft
Windchill -8 °F
Dew Point 5 °F
Humidity 84%
Rainfall 0.00 in
Snow Depth Not available.
7:39 AM 5:45 PM
Waxing Crescent, 6% visible
METAR KBWP 101535Z AUTO 11008KT 2SM BKN008 OVC014 M13/M16 A3008 RMK AO1

10-Day Weather Forecast

Almanac

Astronomy

Feb. 10, 2016 Rise Set
Actual Time
Civil Twilight
Nautical Twilight
Astronomical Twilight
Moon
Length of Visible Light
Length of Day
Tomorrow will be .
, % of the Moon is Illuminated

Today's Extremes

State Highs State Lows

Community

WunderPhotos

Upload Photos

1,891,863 photos uploaded!

WunderBlog® & News

Nearby

Air Quality

  Air Quality AQ Index Pollutant
Not available.

Snow Depth

Station Depth Elevation

Earthquake Activity

City Distance Mag. Time & Date
Minimum magnitude displayed is 2.5.

Coastal Water Temperatures

Place Temperature

Stations

Nearby Weather Stations

Station Location Temp. Windchill Dew Point Humidity Wind Precip. Elev Updated Type
                   

Watches & Warnings

There are currently no watches in effect.